Time;durP1;ratioP1;P1;durP2;ratioP2;P2;SDS_P1;SDS_P2;PMS_P1;PMS_P2;Temp;Humidity;BMP_temperature;BMP_pressure;BME280_temperature;BME280_humidity;BME280_pressure;Samples;Min_cycle;Max_cycle;Signal;HPM_P1;HPM_P2
2021/04/23 00:00:54;;;;;;;6.65;3.90;;;9.40;67.80;;;;;;5081024;28;20052;-73
2021/04/23 00:03:41;;;;;;;11.00;3.83;;;9.40;67.90;;;;;;5074048;28;20044;-73
2021/04/23 00:06:15;;;;;;;12.23;3.95;;;9.30;68.50;;;;;;5075870;28;20162;-73
2021/04/23 00:08:43;;;;;;;8.23;3.92;;;9.20;68.40;;;;;;5054068;28;20068;-73
2021/04/23 00:11:09;;;;;;;7.47;4.00;;;9.20;69.50;;;;;;5076589;28;20054;-73
2021/04/23 00:13:37;;;;;;;11.60;4.38;;;9.20;69.50;;;;;;5072941;28;20039;-72
2021/04/23 00:16:04;;;;;;;11.70;4.38;;;9.20;69.40;;;;;;5072342;28;20043;-73
2021/04/23 00:18:29;;;;;;;11.50;4.40;;;9.20;69.30;;;;;;5072968;28;20115;-73
2021/04/23 00:20:55;;;;;;;8.80;4.20;;;9.20;69.70;;;;;;5059379;28;20133;-73
2021/04/23 00:23:21;;;;;;;9.18;4.43;;;9.30;69.80;;;;;;5054319;28;20029;-73
2021/04/23 00:25:47;;;;;;;14.73;5.30;;;9.20;69.70;;;;;;5069778;28;20540;-72
2021/04/23 00:28:14;;;;;;;13.45;4.55;;;9.30;70.00;;;;;;5073763;28;20027;-72
2021/04/23 00:30:51;;;;;;;14.43;5.30;;;9.30;70.40;;;;;;5072196;28;20508;-71
2021/04/23 00:33:18;;;;;;;11.35;4.57;;;9.30;71.00;;;;;;5073724;28;20032;-72
2021/04/23 00:35:45;;;;;;;8.38;4.43;;;9.20;70.60;;;;;;5085040;28;20020;-71
2021/04/23 00:38:16;;;;;;;14.60;5.93;;;9.30;71.00;;;;;;5093909;28;20099;-72
2021/04/23 00:40:51;;;;;;;11.23;5.65;;;9.30;71.00;;;;;;5058409;28;20087;-72
2021/04/23 00:43:21;;;;;;;12.93;4.80;;;9.40;71.20;;;;;;5053218;28;20037;-72
2021/04/23 00:45:48;;;;;;;10.38;4.80;;;9.30;71.40;;;;;;5083138;28;20463;-72
2021/04/23 00:48:15;;;;;;;10.35;4.40;;;9.30;71.80;;;;;;5093497;28;20024;-74
2021/04/23 00:50:41;;;;;;;12.70;4.72;;;9.30;71.90;;;;;;5086876;28;20032;-73
2021/04/23 00:53:09;;;;;;;10.88;4.13;;;9.30;71.90;;;;;;5093274;28;20070;-73
2021/04/23 00:55:35;;;;;;;10.05;4.18;;;9.30;71.90;;;;;;5071082;28;20052;-74
2021/04/23 00:58:03;;;;;;;10.68;4.93;;;9.20;72.00;;;;;;5072426;28;20476;-74
2021/04/23 01:00:29;;;;;;;11.07;4.40;;;9.20;72.40;;;;;;5082491;28;20458;-73
2021/04/23 01:02:54;;;;;;;14.00;5.03;;;9.10;73.00;;;;;;5089529;28;20036;-73
2021/04/23 01:05:28;;;;;;;17.08;5.40;;;9.10;72.70;;;;;;5053500;28;20195;-74
2021/04/23 01:07:54;;;;;;;10.90;4.38;;;9.10;72.90;;;;;;5071945;28;20501;-73
2021/04/23 01:10:22;;;;;;;12.80;4.53;;;9.10;72.90;;;;;;5070726;28;20032;-72
2021/04/23 01:12:47;;;;;;;16.98;4.95;;;9.10;73.20;;;;;;5071190;28;20028;-74
2021/04/23 01:15:13;;;;;;;11.50;4.38;;;9.10;73.20;;;;;;5071654;28;20079;-74
2021/04/23 01:17:39;;;;;;;15.68;4.82;;;9.00;73.10;;;;;;5072379;28;20491;-73
2021/04/23 01:20:07;;;;;;;11.40;5.03;;;9.00;73.80;;;;;;5079672;28;20086;-74
2021/04/23 01:22:33;;;;;;;13.13;4.63;;;9.00;73.90;;;;;;5078373;28;20040;-71
2021/04/23 01:24:59;;;;;;;9.73;5.00;;;9.00;74.00;;;;;;5070699;28;20033;-71
2021/04/23 01:27:26;;;;;;;11.43;4.88;;;8.90;74.20;;;;;;5071982;28;20028;-72
2021/04/23 01:29:51;;;;;;;13.20;4.72;;;8.90;74.60;;;;;;5076199;28;20027;-72
2021/04/23 01:32:17;;;;;;;12.30;4.72;;;8.90;75.00;;;;;;5081489;28;20032;-73
2021/04/23 01:34:43;;;;;;;12.38;4.10;;;8.90;74.80;;;;;;5064822;28;20028;-73
2021/04/23 01:37:09;;;;;;;15.05;5.03;;;8.90;75.20;;;;;;5045062;28;20107;-72
2021/04/23 01:39:38;;;;;;;8.15;4.07;;;8.80;75.90;;;;;;5074460;28;20464;-72
2021/04/23 01:42:05;;;;;;;11.30;5.22;;;8.80;75.70;;;;;;5090116;28;20131;-72
2021/04/23 01:44:32;;;;;;;13.45;5.88;;;8.90;75.90;;;;;;5068905;28;20127;-72
2021/04/23 01:46:58;;;;;;;10.27;4.68;;;8.80;76.10;;;;;;5084796;28;20488;-73
2021/04/23 01:49:24;;;;;;;12.70;4.55;;;8.80;76.10;;;;;;5067916;28;20032;-72
2021/04/23 01:51:55;;;;;;;10.30;4.55;;;8.80;76.30;;;;;;5061655;28;20384;-72
2021/04/23 01:54:23;;;;;;;14.55;4.95;;;8.90;76.60;;;;;;5079519;28;20073;-72
2021/04/23 01:56:51;;;;;;;15.18;5.32;;;8.90;76.70;;;;;;5071872;28;20393;-72
2021/04/23 01:59:18;;;;;;;9.15;4.75;;;8.90;77.10;;;;;;5082801;28;20052;-73
2021/04/23 02:01:43;;;;;;;14.52;5.50;;;8.80;77.30;;;;;;5070305;28;20029;-72
2021/04/23 02:04:13;;;;;;;10.40;4.75;;;8.90;77.80;;;;;;5084312;28;20420;-73
2021/04/23 02:06:39;;;;;;;12.52;5.68;;;8.90;77.70;;;;;;5060900;28;20040;-72
2021/04/23 02:09:07;;;;;;;11.25;5.65;;;8.90;77.60;;;;;;5057165;28;20028;-72
2021/04/23 02:11:34;;;;;;;11.52;5.38;;;8.90;77.60;;;;;;5070869;28;20029;-71
2021/04/23 02:14:01;;;;;;;12.43;5.07;;;9.00;77.80;;;;;;5083648;28;20446;-71
2021/04/23 02:16:28;;;;;;;10.55;5.40;;;8.90;77.90;;;;;;5071788;28;20100;-71
2021/04/23 02:18:54;;;;;;;17.02;6.25;;;8.90;78.20;;;;;;5075159;28;20064;-72
2021/04/23 02:21:20;;;;;;;13.73;5.20;;;9.00;78.10;;;;;;5071487;28;20060;-72
2021/04/23 02:23:48;;;;;;;10.85;4.63;;;9.00;78.30;;;;;;5086161;28;20047;-71
2021/04/23 02:26:14;;;;;;;14.95;5.15;;;9.00;78.20;;;;;;5071718;28;20024;-73
2021/04/23 02:28:40;;;;;;;14.40;5.38;;;9.00;78.50;;;;;;5086916;28;20032;-73
2021/04/23 02:31:12;;;;;;;11.00;4.40;;;9.00;78.60;;;;;;5070261;28;20021;-73
2021/04/23 02:33:38;;;;;;;17.15;5.10;;;9.00;78.60;;;;;;5070546;28;20020;-73
2021/04/23 02:36:04;;;;;;;15.13;5.07;;;9.00;78.60;;;;;;5069846;28;20036;-73
2021/04/23 02:38:30;;;;;;;14.02;5.53;;;9.00;78.70;;;;;;5068320;28;20033;-73
2021/04/23 02:40:56;;;;;;;13.07;5.20;;;9.00;78.80;;;;;;5052803;28;20370;-74
2021/04/23 02:43:29;;;;;;;13.52;5.28;;;9.00;79.10;;;;;;5065932;28;20537;-74
2021/04/23 02:45:57;;;;;;;13.23;5.38;;;9.00;78.90;;;;;;5070667;28;20107;-74
2021/04/23 02:48:25;;;;;;;13.48;5.18;;;9.00;79.20;;;;;;5075702;28;20115;-74
2021/04/23 02:50:54;;;;;;;14.82;6.15;;;9.00;79.30;;;;;;5057378;28;20025;-75
2021/04/23 02:53:20;;;;;;;12.32;5.22;;;9.00;79.40;;;;;;5072888;28;20037;-74
2021/04/23 02:55:45;;;;;;;14.40;5.22;;;9.00;79.50;;;;;;5071540;28;20021;-74
2021/04/23 02:58:17;;;;;;;14.13;5.00;;;9.00;79.40;;;;;;5069270;28;20115;-75
2021/04/23 03:00:47;;;;;;;10.90;5.35;;;9.10;79.60;;;;;;5052063;28;20032;-75
2021/04/23 03:03:13;;;;;;;16.25;5.55;;;9.00;79.40;;;;;;5064904;28;20032;-74
2021/04/23 03:05:41;;;;;;;15.00;5.30;;;9.00;79.20;;;;;;5051303;28;20473;-74
2021/04/23 03:08:07;;;;;;;13.68;5.65;;;9.00;79.10;;;;;;5069185;28;20035;-74
2021/04/23 03:10:37;;;;;;;14.27;5.00;;;9.00;79.20;;;;;;5088476;28;20020;-74
2021/04/23 03:13:05;;;;;;;12.63;4.82;;;9.00;79.30;;;;;;5081950;28;20063;-74
2021/04/23 03:15:31;;;;;;;12.98;5.82;;;9.00;79.30;;;;;;5070342;28;20036;-74
2021/04/23 03:17:57;;;;;;;17.33;5.53;;;9.00;79.50;;;;;;5069041;28;20024;-75
2021/04/23 03:20:25;;;;;;;14.98;5.88;;;8.90;79.80;;;;;;5070576;28;20484;-73
2021/04/23 03:22:51;;;;;;;15.07;5.43;;;9.00;79.70;;;;;;5076405;28;20115;-73
2021/04/23 03:25:17;;;;;;;12.05;5.72;;;8.90;80.20;;;;;;5071030;28;20048;-72
2021/04/23 03:27:43;;;;;;;15.32;5.50;;;8.90;80.10;;;;;;5067732;28;20036;-72
2021/04/23 03:30:14;;;;;;;12.60;5.20;;;8.90;80.10;;;;;;5070375;28;20032;-73
2021/04/23 03:32:40;;;;;;;11.60;4.97;;;8.80;80.30;;;;;;5068928;28;20032;-73
2021/04/23 03:35:06;;;;;;;14.90;5.40;;;8.80;80.40;;;;;;5070833;28;20524;-73
2021/04/23 03:37:32;;;;;;;14.55;5.55;;;8.80;80.60;;;;;;5071127;28;20024;-72
2021/04/23 03:39:57;;;;;;;10.25;5.13;;;8.80;80.90;;;;;;5070523;28;20163;-71
2021/04/23 03:42:23;;;;;;;13.60;5.68;;;8.80;81.20;;;;;;5067870;28;20033;-78
2021/04/23 03:44:49;;;;;;;11.95;5.93;;;8.80;81.30;;;;;;5071525;28;20631;-80
2021/04/23 03:47:14;;;;;;;16.17;5.97;;;8.80;81.70;;;;;;5069078;28;20463;-74
2021/04/23 03:49:40;;;;;;;16.65;5.90;;;8.70;81.40;;;;;;5073521;28;20025;-76
2021/04/23 03:52:06;;;;;;;12.75;5.07;;;8.70;81.70;;;;;;5072683;28;20432;-73
2021/04/23 03:54:31;;;;;;;18.70;5.80;;;8.70;82.20;;;;;;5073900;28;20029;-75
2021/04/23 03:56:57;;;;;;;13.98;6.20;;;8.70;82.40;;;;;;5073616;28;20021;-75
2021/04/23 03:59:23;;;;;;;18.30;6.05;;;8.70;81.70;;;;;;5073807;28;20059;-75
2021/04/23 04:01:49;;;;;;;16.02;6.00;;;8.70;82.00;;;;;;5074064;28;20033;-74
2021/04/23 04:04:15;;;;;;;12.20;5.13;;;8.70;82.20;;;;;;5074427;28;20043;-72
2021/04/23 04:06:40;;;;;;;17.25;6.78;;;8.70;82.10;;;;;;5072196;28;20032;-72
2021/04/23 04:09:06;;;;;;;12.85;5.82;;;8.70;82.00;;;;;;5075108;28;20503;-72
2021/04/23 04:11:31;;;;;;;16.67;6.63;;;8.70;82.10;;;;;;5071849;28;20028;-73
2021/04/23 04:13:57;;;;;;;12.18;5.80;;;8.80;82.10;;;;;;5051637;28;20088;-72
2021/04/23 04:16:22;;;;;;;16.65;6.10;;;8.80;81.80;;;;;;5061705;28;20028;-72
2021/04/23 04:18:48;;;;;;;16.70;6.53;;;8.80;81.80;;;;;;5076578;28;20040;-72
2021/04/23 04:21:13;;;;;;;12.75;5.03;;;8.90;82.00;;;;;;5073113;28;20029;-73
2021/04/23 04:23:39;;;;;;;15.50;6.13;;;8.90;82.10;;;;;;5072595;28;20037;-73
2021/04/23 04:26:05;;;;;;;12.05;5.63;;;8.90;81.90;;;;;;5072724;28;20071;-72
2021/04/23 04:28:31;;;;;;;11.35;5.97;;;8.90;81.80;;;;;;5087123;28;20498;-73
2021/04/23 04:30:58;;;;;;;15.10;5.97;;;8.90;82.30;;;;;;5086758;28;20028;-72
2021/04/23 04:33:24;;;;;;;16.20;5.85;;;8.80;82.40;;;;;;5071547;28;20025;-72
2021/04/23 04:35:50;;;;;;;14.15;5.50;;;8.80;82.40;;;;;;5074777;28;20050;-72
2021/04/23 04:38:16;;;;;;;15.50;6.57;;;8.80;82.70;;;;;;5071271;28;20048;-73
2021/04/23 04:40:44;;;;;;;12.00;5.60;;;8.80;82.70;;;;;;5072837;28;20033;-71
2021/04/23 04:43:11;;;;;;;15.43;5.38;;;8.80;83.10;;;;;;5084140;28;20040;-72
2021/04/23 04:45:38;;;;;;;15.13;6.10;;;8.80;82.80;;;;;;5093590;28;20021;-72
2021/04/23 04:48:06;;;;;;;11.75;6.20;;;8.80;83.00;;;;;;5084001;28;20085;-72
2021/04/23 04:51:02;;;;;;;13.48;5.47;;;8.80;83.10;;;;;;5091280;28;20028;-72
2021/04/23 04:53:29;;;;;;;20.25;6.40;;;8.80;82.80;;;;;;5065868;28;20459;-72
2021/04/23 04:55:58;;;;;;;18.60;5.82;;;8.80;83.20;;;;;;5088754;28;20025;-72
2021/04/23 04:58:33;;;;;;;14.18;5.57;;;8.80;83.40;;;;;;5067528;28;20032;-73
2021/04/23 05:00:59;;;;;;;;;;;8.80;83.30;;;;;;5071998;28;20067;-72
2021/04/23 05:03:25;;;;;;;13.30;5.63;;;8.80;82.90;;;;;;5085492;28;20356;-68
2021/04/23 05:05:50;;;;;;;19.42;6.22;;;8.80;82.90;;;;;;5080997;28;20045;-73
2021/04/23 05:08:16;;;;;;;13.10;6.03;;;8.80;83.00;;;;;;5077307;28;20173;-73
2021/04/23 05:10:42;;;;;;;16.58;5.45;;;8.80;83.70;;;;;;5081562;28;20031;-73
2021/04/23 05:13:08;;;;;;;22.00;7.38;;;8.80;83.70;;;;;;5071419;28;20131;-73
2021/04/23 05:15:34;;;;;;;12.45;5.28;;;8.80;83.60;;;;;;5069032;28;20019;-73
2021/04/23 05:17:59;;;;;;;11.57;5.45;;;8.90;83.40;;;;;;5074174;28;20093;-72
2021/04/23 05:20:26;;;;;;;12.40;5.28;;;8.90;83.30;;;;;;5074113;28;20020;-73
2021/04/23 05:22:52;;;;;;;14.82;5.78;;;8.90;83.30;;;;;;5079194;28;20095;-72
2021/04/23 05:25:23;;;;;;;12.98;5.28;;;8.90;83.30;;;;;;5072039;28;20025;-72
2021/04/23 05:27:50;;;;;;;17.75;6.13;;;8.90;83.30;;;;;;5080445;28;20031;-73
2021/04/23 05:30:19;;;;;;;11.30;5.43;;;8.90;83.50;;;;;;5092435;28;20027;-73
2021/04/23 05:32:45;;;;;;;12.70;5.43;;;9.00;83.30;;;;;;5062077;28;20059;-72
2021/04/23 05:35:13;;;;;;;12.82;5.65;;;9.00;83.10;;;;;;5079303;28;20028;-72
2021/04/23 05:37:38;;;;;;;13.80;5.53;;;9.00;83.60;;;;;;5088492;28;20039;-72
2021/04/23 05:40:07;;;;;;;14.68;5.80;;;9.00;83.30;;;;;;5076483;28;20017;-72
2021/04/23 05:42:32;;;;;;;13.68;5.70;;;9.00;83.20;;;;;;5070638;28;20059;-72
2021/04/23 05:44:58;;;;;;;14.13;5.40;;;9.00;83.10;;;;;;5072058;28;20501;-72
2021/04/23 05:47:24;;;;;;;13.80;6.40;;;9.00;83.20;;;;;;5072022;28;20392;-72
2021/04/23 05:49:50;;;;;;;12.20;5.30;;;9.10;83.40;;;;;;5091935;28;20090;-72
2021/04/23 05:52:16;;;;;;;10.30;4.80;;;9.10;82.90;;;;;;5071344;28;20423;-73
2021/04/23 05:54:41;;;;;;;15.65;5.05;;;9.10;83.00;;;;;;5092484;28;20024;-73
2021/04/23 05:57:07;;;;;;;13.30;5.70;;;9.10;83.10;;;;;;5084842;28;20401;-72
2021/04/23 05:59:33;;;;;;;13.93;5.30;;;9.20;82.70;;;;;;5071484;28;20048;-72
2021/04/23 06:01:59;;;;;;;11.50;5.57;;;9.30;82.40;;;;;;5054452;28;20028;-73
2021/04/23 06:04:25;;;;;;;11.45;6.22;;;9.30;82.00;;;;;;5071968;28;20032;-72
2021/04/23 06:06:50;;;;;;;15.95;5.78;;;9.40;81.90;;;;;;5070021;28;20440;-72
2021/04/23 06:09:16;;;;;;;14.68;5.65;;;9.40;81.90;;;;;;5057851;28;20024;-72
2021/04/23 06:11:42;;;;;;;13.40;5.18;;;9.40;81.70;;;;;;5069726;28;20506;-73
2021/04/23 06:14:08;;;;;;;18.85;5.82;;;9.50;81.40;;;;;;5091951;28;20033;-72
2021/04/23 06:16:34;;;;;;;17.17;5.72;;;9.50;81.30;;;;;;5089928;28;20095;-73
2021/04/23 06:19:00;;;;;;;13.02;4.82;;;9.50;81.20;;;;;;5072557;28;20035;-72
2021/04/23 06:21:26;;;;;;;15.15;5.55;;;9.50;81.30;;;;;;5091749;28;20353;-70
2021/04/23 06:23:51;;;;;;;11.45;4.93;;;9.70;80.70;;;;;;5087444;28;20043;-70
2021/04/23 06:26:17;;;;;;;12.27;5.28;;;9.60;80.20;;;;;;5085564;28;20145;-70
2021/04/23 06:28:44;;;;;;;13.00;5.18;;;9.70;79.80;;;;;;5064904;28;20499;-70
2021/04/23 06:31:11;;;;;;;11.70;4.75;;;9.80;79.60;;;;;;5079069;28;20028;-68
2021/04/23 06:33:39;;;;;;;13.80;4.97;;;9.80;78.80;;;;;;5069932;28;20074;-68
2021/04/23 06:36:06;;;;;;;11.18;5.28;;;9.80;79.30;;;;;;5062763;28;20086;-69
2021/04/23 06:38:32;;;;;;;9.60;5.07;;;9.90;78.70;;;;;;5068116;28;20028;-69
2021/04/23 06:40:58;;;;;;;11.57;4.90;;;9.90;78.20;;;;;;5063828;28;20035;-70
2021/04/23 06:43:24;;;;;;;15.23;5.07;;;9.90;78.10;;;;;;5075734;28;20048;-70
2021/04/23 06:45:50;;;;;;;11.15;5.30;;;9.90;77.90;;;;;;5070911;28;20030;-70
2021/04/23 06:48:17;;;;;;;14.20;4.65;;;10.00;77.80;;;;;;5077954;28;20043;-71
2021/04/23 06:50:43;;;;;;;13.75;4.47;;;10.10;77.50;;;;;;5066159;28;20020;-70
2021/04/23 06:53:09;;;;;;;11.15;4.50;;;10.20;76.80;;;;;;5070675;28;20059;-70
2021/04/23 06:55:34;;;;;;;14.43;4.82;;;10.20;76.20;;;;;;5053365;28;20469;-70
2021/04/23 06:58:00;;;;;;;12.27;5.00;;;10.20;75.80;;;;;;5068264;28;20527;-71
2021/04/23 07:00:32;;;;;;;12.85;4.57;;;10.20;75.30;;;;;;5074755;28;20041;-70
2021/04/23 07:03:00;;;;;;;13.63;4.30;;;10.20;75.40;;;;;;5068281;28;20044;-71
2021/04/23 07:05:26;;;;;;;11.85;4.13;;;10.30;75.00;;;;;;5068066;28;20075;-70
2021/04/23 07:07:52;;;;;;;11.85;4.85;;;10.30;73.60;;;;;;5068330;28;20039;-70
2021/04/23 07:10:23;;;;;;;8.82;4.53;;;10.30;73.60;;;;;;5086103;28;20032;-70
2021/04/23 07:12:49;;;;;;;8.73;4.20;;;10.20;73.30;;;;;;5052624;28;20047;-70
2021/04/23 07:15:18;;;;;;;8.30;3.75;;;10.20;73.70;;;;;;5071358;28;20039;-70
2021/04/23 07:17:45;;;;;;;11.18;3.95;;;10.30;73.70;;;;;;5077006;28;20028;-70
2021/04/23 07:20:12;;;;;;;16.00;4.45;;;10.30;72.90;;;;;;5078818;28;20046;-70
2021/04/23 07:22:37;;;;;;;9.00;4.00;;;10.40;72.00;;;;;;5068913;28;20028;-71
2021/04/23 07:25:04;;;;;;;9.75;4.05;;;10.40;72.30;;;;;;5055419;28;20039;-70
2021/04/23 07:27:34;;;;;;;14.93;4.85;;;10.50;71.60;;;;;;5065631;28;20032;-70
2021/04/23 07:30:01;;;;;;;12.57;4.32;;;10.60;71.10;;;;;;5068709;28;20408;-69
2021/04/23 07:32:27;;;;;;;10.95;3.92;;;10.50;70.70;;;;;;5074226;28;20020;-70
2021/04/23 07:34:52;;;;;;;11.70;3.72;;;10.60;71.10;;;;;;5074539;28;20028;-70
2021/04/23 07:37:18;;;;;;;12.07;3.75;;;10.70;70.20;;;;;;5074827;28;20028;-70
2021/04/23 07:39:43;;;;;;;14.77;3.88;;;10.80;69.10;;;;;;5072271;28;20393;-70
2021/04/23 07:42:09;;;;;;;14.55;3.83;;;10.90;68.30;;;;;;5072653;28;20118;-71
2021/04/23 07:44:34;;;;;;;12.48;3.63;;;11.00;68.40;;;;;;5056410;28;20029;-70
2021/04/23 07:47:00;;;;;;;15.00;4.10;;;11.00;68.00;;;;;;5072362;28;20183;-71
2021/04/23 07:49:25;;;;;;;10.63;4.00;;;11.10;68.20;;;;;;5072843;28;20033;-71
2021/04/23 07:51:50;;;;;;;9.20;3.88;;;11.10;67.70;;;;;;5069048;28;20034;-71
2021/04/23 07:54:16;;;;;;;10.93;3.50;;;11.10;66.80;;;;;;5069992;28;20028;-71
2021/04/23 07:56:42;;;;;;;11.65;3.40;;;11.10;67.10;;;;;;5068945;28;20500;-70
2021/04/23 07:59:07;;;;;;;9.20;4.25;;;11.10;66.60;;;;;;5067600;28;20405;-70
2021/04/23 08:01:33;;;;;;;7.50;4.03;;;11.20;66.50;;;;;;5071325;28;20021;-70
2021/04/23 08:03:59;;;;;;;11.55;3.53;;;11.20;65.80;;;;;;5072820;28;20078;-70
2021/04/23 08:06:25;;;;;;;9.13;3.80;;;11.30;66.40;;;;;;5074047;28;20033;-70
2021/04/23 08:08:50;;;;;;;11.18;3.90;;;11.30;65.60;;;;;;5070835;28;20545;-70
2021/04/23 08:11:16;;;;;;;15.48;4.15;;;11.40;65.60;;;;;;5071854;28;20086;-70
2021/04/23 08:13:41;;;;;;;11.73;4.60;;;11.50;65.50;;;;;;5071990;28;20473;-71
2021/04/23 08:16:07;;;;;;;9.20;3.95;;;11.50;65.30;;;;;;5073226;28;20070;-70
2021/04/23 08:18:38;;;;;;;10.98;3.35;;;11.60;65.00;;;;;;5069704;28;20388;-68
2021/04/23 08:21:08;;;;;;;12.93;3.95;;;11.70;64.60;;;;;;5072164;28;20037;-72
2021/04/23 08:23:35;;;;;;;7.22;2.80;;;11.70;64.10;;;;;;5056299;28;20071;-72
2021/04/23 08:26:03;;;;;;;9.55;3.70;;;11.80;63.30;;;;;;5073460;28;20060;-71
2021/04/23 08:28:29;;;;;;;9.35;3.33;;;11.90;62.70;;;;;;5070850;28;20033;-73
2021/04/23 08:30:55;;;;;;;13.45;3.65;;;11.90;62.40;;;;;;5072142;28;20461;-71
2021/04/23 08:33:21;;;;;;;12.32;3.35;;;11.90;62.90;;;;;;5070597;28;20032;-71
2021/04/23 08:35:46;;;;;;;10.85;3.50;;;12.00;62.70;;;;;;5071649;28;20071;-70
2021/04/23 08:38:13;;;;;;;11.77;3.60;;;11.90;61.70;;;;;;5074293;28;20060;-71
2021/04/23 08:40:38;;;;;;;12.55;4.07;;;12.00;62.00;;;;;;5057368;28;20032;-70
2021/04/23 08:43:04;;;;;;;7.85;3.22;;;12.10;62.30;;;;;;5071489;28;20165;-71
2021/04/23 08:45:30;;;;;;;12.15;4.15;;;12.20;61.90;;;;;;5072079;28;20119;-71
2021/04/23 08:47:57;;;;;;;11.57;3.55;;;12.30;61.10;;;;;;5075248;28;20024;-71
2021/04/23 08:50:25;;;;;;;8.10;3.53;;;12.40;60.40;;;;;;5074647;28;20155;-70
2021/04/23 08:52:53;;;;;;;12.65;3.85;;;12.30;59.90;;;;;;5070755;28;20366;-71
2021/04/23 08:55:23;;;;;;;10.23;3.25;;;12.20;59.90;;;;;;5071264;28;20028;-71
2021/04/23 08:57:49;;;;;;;9.15;3.28;;;12.30;60.40;;;;;;5074751;28;20071;-71
2021/04/23 09:00:16;;;;;;;9.27;3.20;;;12.30;60.40;;;;;;5092731;28;20036;-71
2021/04/23 09:02:42;;;;;;;12.77;3.45;;;12.40;60.50;;;;;;5084313;28;20050;-71
2021/04/23 09:05:08;;;;;;;12.48;3.58;;;12.50;60.00;;;;;;5093066;28;20063;-71
2021/04/23 09:07:34;;;;;;;8.48;3.33;;;12.50;60.30;;;;;;5081607;28;20039;-71
2021/04/23 09:10:12;;;;;;;11.50;3.70;;;12.60;60.50;;;;;;5050639;28;20029;-71
2021/04/23 09:12:39;;;;;;;9.32;3.50;;;12.70;59.40;;;;;;5073364;28;20024;-72
2021/04/23 09:15:22;;;;;;;10.35;2.85;;;12.70;58.70;;;;;;5085716;28;20043;-72
2021/04/23 09:18:04;;;;;;;10.77;3.47;;;12.60;59.30;;;;;;5070574;28;20028;-72
2021/04/23 09:20:30;;;;;;;8.45;3.10;;;12.60;58.40;;;;;;5058572;28;20024;-70
2021/04/23 09:23:09;;;;;;;11.02;3.03;;;12.70;58.30;;;;;;5071263;28;20137;-71
2021/04/23 09:25:42;;;;;;;7.65;3.10;;;12.70;58.20;;;;;;5072377;28;20032;-71
2021/04/23 09:28:08;;;;;;;14.10;3.17;;;12.60;57.50;;;;;;5071884;28;20028;-70
2021/04/23 09:30:34;;;;;;;10.30;3.25;;;12.70;57.60;;;;;;5071335;28;20116;-71
2021/04/23 09:33:01;;;;;;;12.20;3.53;;;12.70;58.10;;;;;;5070049;28;20032;-70
2021/04/23 09:35:27;;;;;;;9.23;3.38;;;12.60;57.60;;;;;;5071377;28;20032;-71
2021/04/23 09:37:55;;;;;;;13.77;3.03;;;12.70;58.30;;;;;;5070865;28;20028;-71
2021/04/23 09:40:30;;;;;;;14.57;3.63;;;12.70;56.90;;;;;;5075818;28;20098;-71
2021/04/23 09:43:04;;;;;;;10.35;3.45;;;12.70;57.20;;;;;;5069730;28;20064;-70
2021/04/23 09:45:35;;;;;;;8.52;3.15;;;12.70;57.50;;;;;;5071274;28;20111;-70
2021/04/23 09:48:01;;;;;;;10.32;3.97;;;12.80;57.90;;;;;;5069782;28;20568;-71
2021/04/23 09:50:33;;;;;;;7.85;2.95;;;12.90;57.70;;;;;;5070484;28;20060;-71
2021/04/23 09:53:00;;;;;;;11.77;3.60;;;12.80;55.80;;;;;;5069896;28;20032;-71
2021/04/23 09:55:28;;;;;;;7.07;2.83;;;12.70;56.00;;;;;;5069725;28;20028;-71
2021/04/23 09:58:03;;;;;;;8.85;2.90;;;12.70;56.20;;;;;;5062292;28;20036;-70
2021/04/23 10:00:31;;;;;;;7.53;2.75;;;12.80;56.00;;;;;;5069171;28;20445;-70
2021/04/23 10:03:02;;;;;;;7.28;3.15;;;12.90;55.20;;;;;;5077429;28;20032;-70
2021/04/23 10:05:29;;;;;;;8.13;3.17;;;12.80;54.60;;;;;;5051851;28;20381;-71
2021/04/23 10:07:55;;;;;;;8.48;2.80;;;12.80;55.10;;;;;;5058487;28;20112;-71
2021/04/23 10:10:20;;;;;;;12.32;3.50;;;12.90;55.40;;;;;;5087458;28;20103;-71
2021/04/23 10:12:58;;;;;;;11.10;3.40;;;13.00;55.80;;;;;;5081535;28;20503;-71
2021/04/23 10:15:29;;;;;;;11.32;3.58;;;13.10;55.00;;;;;;5071184;28;20123;-72
2021/04/23 10:18:00;;;;;;;7.57;2.97;;;13.10;55.20;;;;;;5069796;28;20029;-70
2021/04/23 10:20:29;;;;;;;11.52;2.95;;;13.20;54.60;;;;;;5070653;28;20036;-71
2021/04/23 10:22:57;;;;;;;12.95;2.92;;;13.30;54.30;;;;;;5068750;28;20031;-71
2021/04/23 10:25:23;;;;;;;11.52;3.88;;;13.50;54.20;;;;;;5069644;28;20116;-70
2021/04/23 10:27:52;;;;;;;7.50;2.92;;;13.70;54.00;;;;;;5070387;28;20029;-71
2021/04/23 10:30:20;;;;;;;7.22;2.88;;;13.70;53.50;;;;;;5074392;28;20089;-71
2021/04/23 10:32:51;;;;;;;9.45;2.80;;;13.80;52.70;;;;;;5078860;28;20396;-71
2021/04/23 10:35:17;;;;;;;8.80;2.67;;;13.80;52.70;;;;;;5083480;28;20035;-71
2021/04/23 10:37:44;;;;;;;7.30;2.25;;;13.90;53.00;;;;;;5059567;28;20028;-71
2021/04/23 10:40:12;;;;;;;11.18;2.85;;;14.00;52.70;;;;;;5074232;28;20404;-71
2021/04/23 10:42:47;;;;;;;9.48;3.42;;;14.10;51.70;;;;;;5060554;28;20120;-71
2021/04/23 10:45:25;;;;;;;13.70;3.58;;;14.10;51.90;;;;;;5075364;28;20654;-71
2021/04/23 10:47:53;;;;;;;5.70;2.65;;;14.10;51.70;;;;;;5079725;28;20032;-71
2021/04/23 10:50:23;;;;;;;7.03;2.00;;;14.20;50.60;;;;;;5074180;28;20358;-71
2021/04/23 10:52:59;;;;;;;6.40;2.40;;;14.20;50.30;;;;;;5066104;28;20504;-71
2021/04/23 10:55:47;;;;;;;8.00;2.70;;;14.20;50.10;;;;;;5071124;28;20162;-73
2021/04/23 10:58:35;;;;;;;10.75;2.60;;;14.30;49.60;;;;;;5071667;28;20044;-70
2021/04/23 11:01:14;;;;;;;7.22;2.58;;;14.40;49.60;;;;;;5073629;28;20516;-71
2021/04/23 11:03:44;;;;;;;6.35;2.40;;;14.50;48.90;;;;;;5074251;28;20040;-71
2021/04/23 11:06:12;;;;;;;3.95;1.85;;;14.60;47.90;;;;;;5068548;28;20078;-71
2021/04/23 11:08:39;;;;;;;6.63;2.10;;;14.60;47.70;;;;;;5074570;28;20051;-71
2021/04/23 11:11:13;;;;;;;8.00;2.33;;;14.70;48.20;;;;;;5074913;28;20033;-71
2021/04/23 11:13:44;;;;;;;9.02;2.30;;;14.70;47.70;;;;;;5074531;28;20366;-71
2021/04/23 11:16:22;;;;;;;10.15;2.33;;;14.70;48.10;;;;;;5074131;28;20033;-72
2021/04/23 11:18:59;;;;;;;9.27;2.85;;;14.80;48.20;;;;;;5073826;28;20033;-72
2021/04/23 11:21:28;;;;;;;8.30;2.28;;;14.80;48.20;;;;;;5073803;28;21717;-71
2021/04/23 11:24:22;;;;;;;6.18;2.45;;;14.70;46.30;;;;;;5073600;28;20074;-71
2021/04/23 11:27:02;;;;;;;10.75;3.63;;;14.70;46.00;;;;;;5073017;28;20025;-71
2021/04/23 11:29:38;;;;;;;10.07;3.13;;;14.60;46.50;;;;;;5073765;28;20036;-72
2021/04/23 11:32:24;;;;;;;6.03;2.15;;;14.70;47.20;;;;;;5073930;28;20028;-72
2021/04/23 11:34:53;;;;;;;9.98;2.50;;;14.80;46.40;;;;;;5055384;28;20535;-73
2021/04/23 11:37:29;;;;;;;7.93;2.83;;;14.90;46.40;;;;;;5073768;28;20046;-72
2021/04/23 11:40:14;;;;;;;6.90;2.42;;;14.70;45.70;;;;;;5060503;28;20125;-72
2021/04/23 11:42:48;;;;;;;5.70;2.08;;;14.60;45.90;;;;;;5070289;28;20440;-71
2021/04/23 11:45:16;;;;;;;7.63;2.40;;;14.60;45.70;;;;;;5074529;28;20523;-73
2021/04/23 11:47:44;;;;;;;7.20;2.35;;;14.60;45.90;;;;;;5072872;28;20028;-72
2021/04/23 11:50:32;;;;;;;5.30;2.25;;;14.60;46.10;;;;;;5073773;28;20025;-73
2021/04/23 11:52:59;;;;;;;9.38;2.63;;;14.80;45.90;;;;;;5073008;28;20547;-72
2021/04/23 11:55:25;;;;;;;8.80;2.38;;;14.90;45.70;;;;;;5073500;28;20048;-72
2021/04/23 11:57:52;;;;;;;5.43;1.98;;;14.80;45.20;;;;;;5073149;28;20029;-73
2021/04/23 12:00:23;;;;;;;6.80;2.38;;;14.90;45.80;;;;;;5071788;28;20063;-73
2021/04/23 12:03:06;;;;;;;6.05;2.00;;;15.10;46.10;;;;;;5073838;28;20119;-73
2021/04/23 12:05:38;;;;;;;8.00;2.70;;;15.20;45.30;;;;;;5054113;28;20758;-73
2021/04/23 12:08:20;;;;;;;7.32;2.30;;;15.20;44.90;;;;;;5072889;28;20029;-73
2021/04/23 12:10:51;;;;;;;5.68;2.60;;;15.10;44.70;;;;;;5067980;28;20485;-73
2021/04/23 12:13:18;;;;;;;6.75;2.50;;;15.10;44.50;;;;;;5071720;28;20032;-74
2021/04/23 12:15:46;;;;;;;13.63;2.83;;;15.00;43.00;;;;;;5071461;28;20032;-73
2021/04/23 12:18:13;;;;;;;6.20;2.50;;;14.80;44.20;;;;;;5061339;28;20033;-72
2021/04/23 12:20:44;;;;;;;9.15;2.60;;;14.80;44.00;;;;;;5090130;28;20563;-73
2021/04/23 12:23:12;;;;;;;5.05;1.95;;;14.80;44.50;;;;;;5076232;28;20083;-73
2021/04/23 12:25:46;;;;;;;6.28;1.98;;;14.80;44.40;;;;;;5072461;28;20032;-73
2021/04/23 12:28:37;;;;;;;9.18;2.90;;;14.90;44.00;;;;;;5072405;28;20032;-73
2021/04/23 12:31:21;;;;;;;5.00;1.83;;;15.10;43.80;;;;;;5073313;28;20060;-73
2021/04/23 12:33:48;;;;;;;4.50;2.28;;;15.20;44.10;;;;;;5086811;28;20032;-71
2021/04/23 12:36:21;;;;;;;5.18;2.30;;;15.20;43.60;;;;;;5083818;28;20020;-72
2021/04/23 12:38:51;;;;;;;4.38;2.38;;;15.40;43.70;;;;;;5053424;28;20167;-74
2021/04/23 12:41:21;;;;;;;5.32;2.15;;;15.40;42.80;;;;;;5055764;28;20123;-71
2021/04/23 12:43:48;;;;;;;6.50;2.38;;;15.50;41.80;;;;;;5070314;28;20043;-72
2021/04/23 12:46:31;;;;;;;6.13;2.80;;;15.60;42.10;;;;;;5072631;28;20040;-72
2021/04/23 12:48:58;;;;;;;8.45;2.13;;;15.80;42.80;;;;;;5085776;28;20024;-72
2021/04/23 12:51:24;;;;;;;8.00;2.13;;;15.80;42.10;;;;;;5072042;28;20051;-72